UAL340 KLAX-KSLC
Flight info
| Callsign | UAL340 |
|---|---|
| Flight time | N/A |
| Altitude | 37000 |
| Route | ORCKA5 LAS Q70 BLIPP Q842 WINEN MLF PITTT1 |
| Aircraft | A319/M-SDE3FGHIRWY/LB1 |
Departure
| Time | N/A |
|---|---|
| Airport | Los Angeles International Airport (KLAX) |
Arrival
| Time | 2026-05-06 05:22 |
|---|---|
| Airport | Salt Lake City International Airport (KSLC) |
| Time | Latitude | Longitude | Altitude | Speed | Heading |
|---|---|---|---|---|---|
| 2026-05-06 04:26 | 35.72456 | -115.65235 | 37010 ft | 464 kts | 48° |
| 2026-05-06 04:26 | 35.74598 | -115.62288 | 37005 ft | 460 kts | 48° |
| 2026-05-06 04:27 | 35.78846 | -115.56420 | 37007 ft | 459 kts | 48° |
| 2026-05-06 04:27 | 35.83109 | -115.50535 | 37011 ft | 462 kts | 48° |
| 2026-05-06 04:28 | 35.86680 | -115.45593 | 37007 ft | 465 kts | 48° |
| 2026-05-06 04:28 | 35.90976 | -115.39638 | 37009 ft | 464 kts | 48° |
| 2026-05-06 04:29 | 35.95268 | -115.33681 | 37004 ft | 462 kts | 48° |
| 2026-05-06 04:29 | 35.99499 | -115.27796 | 37007 ft | 461 kts | 48° |
| 2026-05-06 04:30 | 36.03739 | -115.21888 | 37009 ft | 459 kts | 48° |
| 2026-05-06 04:30 | 36.07965 | -115.15991 | 37007 ft | 458 kts | 48° |
| 2026-05-06 04:31 | 36.12187 | -115.10089 | 37005 ft | 458 kts | 48° |
| 2026-05-06 04:31 | 36.16403 | -115.04193 | 37009 ft | 458 kts | 48° |
| 2026-05-06 04:32 | 36.20636 | -114.98272 | 37007 ft | 459 kts | 48° |
| 2026-05-06 04:32 | 36.24880 | -114.92333 | 37010 ft | 460 kts | 48° |
| 2026-05-06 04:33 | 36.29114 | -114.86406 | 37008 ft | 459 kts | 48° |
| 2026-05-06 04:33 | 36.33351 | -114.80471 | 37007 ft | 460 kts | 48° |
| 2026-05-06 04:34 | 36.37574 | -114.74553 | 37006 ft | 460 kts | 48° |
| 2026-05-06 04:34 | 36.41823 | -114.68598 | 37006 ft | 460 kts | 48° |
| 2026-05-06 04:35 | 36.46075 | -114.62635 | 37008 ft | 460 kts | 48° |
| 2026-05-06 04:35 | 36.50321 | -114.56678 | 37004 ft | 459 kts | 48° |
| 2026-05-06 04:36 | 36.54549 | -114.50743 | 37006 ft | 458 kts | 48° |
| 2026-05-06 04:36 | 36.58770 | -114.44817 | 37009 ft | 457 kts | 48° |
| 2026-05-06 04:37 | 36.62963 | -114.38927 | 37007 ft | 458 kts | 48° |
| 2026-05-06 04:37 | 36.67198 | -114.32975 | 37007 ft | 459 kts | 48° |
| 2026-05-06 04:38 | 36.71943 | -114.27717 | 36993 ft | 457 kts | 32° |
| 2026-05-06 04:38 | 36.77615 | -114.24167 | 36998 ft | 458 kts | 21° |
| 2026-05-06 04:39 | 36.83562 | -114.21261 | 36997 ft | 460 kts | 24° |
| 2026-05-06 04:39 | 36.89320 | -114.17761 | 36994 ft | 459 kts | 24° |
| 2026-05-06 04:40 | 36.95167 | -114.14577 | 36994 ft | 459 kts | 24° |
| 2026-05-06 04:40 | 37.00933 | -114.11225 | 36997 ft | 459 kts | 24° |
| 2026-05-06 04:41 | 37.06768 | -114.07942 | 37001 ft | 460 kts | 24° |
| 2026-05-06 04:41 | 37.12591 | -114.04600 | 37005 ft | 461 kts | 24° |
| 2026-05-06 04:42 | 37.18440 | -114.01269 | 37009 ft | 461 kts | 24° |
| 2026-05-06 04:42 | 37.24277 | -113.97922 | 37008 ft | 461 kts | 24° |
| 2026-05-06 04:43 | 37.30112 | -113.94581 | 37010 ft | 462 kts | 24° |
| 2026-05-06 04:43 | 37.35977 | -113.91210 | 37005 ft | 464 kts | 24° |
| 2026-05-06 04:43 | 37.38871 | -113.89547 | 36670 ft | 453 kts | 24° |
| 2026-05-06 04:44 | 37.41686 | -113.87928 | 36617 ft | 438 kts | 24° |
| 2026-05-06 04:44 | 37.44468 | -113.86325 | 35412 ft | 446 kts | 24° |
| 2026-05-06 04:44 | 37.47297 | -113.84694 | 34753 ft | 441 kts | 24° |
| 2026-05-06 04:44 | 37.50058 | -113.83100 | 34867 ft | 435 kts | 24° |
| 2026-05-06 04:45 | 37.52815 | -113.81508 | 35004 ft | 437 kts | 24° |
| 2026-05-06 04:45 | 37.58340 | -113.78264 | 35007 ft | 445 kts | 30° |
| 2026-05-06 04:46 | 37.63611 | -113.74038 | 35002 ft | 452 kts | 33° |
| 2026-05-06 04:46 | 37.68963 | -113.69742 | 35010 ft | 460 kts | 32° |
| 2026-05-06 04:47 | 37.74404 | -113.65341 | 35009 ft | 467 kts | 32° |
| 2026-05-06 04:47 | 37.79903 | -113.60899 | 35007 ft | 469 kts | 32° |
| 2026-05-06 04:48 | 37.85353 | -113.56480 | 35006 ft | 467 kts | 32° |
| 2026-05-06 04:48 | 37.90693 | -113.52156 | 35097 ft | 461 kts | 32° |
| 2026-05-06 04:48 | 37.93321 | -113.49964 | 34982 ft | 443 kts | 38° |
| 2026-05-06 04:49 | 37.95650 | -113.47436 | 35005 ft | 442 kts | 42° |
| 2026-05-06 04:49 | 38.00252 | -113.42139 | 35005 ft | 450 kts | 41° |
| 2026-05-06 04:50 | 38.04958 | -113.36849 | 35012 ft | 458 kts | 41° |
| 2026-05-06 04:50 | 38.09733 | -113.31394 | 35009 ft | 465 kts | 41° |
| 2026-05-06 04:51 | 38.14585 | -113.25883 | 35011 ft | 469 kts | 41° |
| 2026-05-06 04:51 | 38.19429 | -113.20350 | 35007 ft | 468 kts | 41° |
| 2026-05-06 04:52 | 38.24266 | -113.14823 | 35016 ft | 467 kts | 41° |
| 2026-05-06 04:52 | 38.29085 | -113.09305 | 35008 ft | 465 kts | 42° |
| 2026-05-06 04:53 | 38.33894 | -113.03786 | 35013 ft | 465 kts | 42° |
| 2026-05-06 04:53 | 38.36436 | -113.01240 | 34956 ft | 466 kts | 28° |
| 2026-05-06 04:53 | 38.39376 | -112.99515 | 34999 ft | 465 kts | 22° |
| 2026-05-06 04:54 | 38.45382 | -112.96366 | 35010 ft | 468 kts | 22° |
| 2026-05-06 04:54 | 38.51347 | -112.93165 | 35004 ft | 467 kts | 22° |
| 2026-05-06 04:55 | 38.57349 | -112.89969 | 35013 ft | 467 kts | 22° |
| 2026-05-06 04:55 | 38.63346 | -112.86754 | 35012 ft | 467 kts | 22° |
| 2026-05-06 04:56 | 38.69338 | -112.83544 | 35005 ft | 466 kts | 22° |
| 2026-05-06 04:56 | 38.75333 | -112.80323 | 35014 ft | 466 kts | 22° |
| 2026-05-06 04:57 | 38.81313 | -112.77104 | 35007 ft | 466 kts | 22° |
| 2026-05-06 04:57 | 38.87288 | -112.73884 | 35010 ft | 466 kts | 22° |
| 2026-05-06 04:58 | 38.93223 | -112.70678 | 35006 ft | 465 kts | 22° |
| 2026-05-06 04:58 | 38.99192 | -112.67447 | 35009 ft | 465 kts | 22° |
| 2026-05-06 04:59 | 39.05147 | -112.64220 | 35008 ft | 464 kts | 22° |
| 2026-05-06 04:59 | 39.11101 | -112.60986 | 35013 ft | 464 kts | 22° |
| 2026-05-06 04:59 | 39.14023 | -112.59397 | 34998 ft | 444 kts | 22° |
| 2026-05-06 05:00 | 39.16888 | -112.57836 | 34426 ft | 457 kts | 22° |
| 2026-05-06 05:00 | 39.19842 | -112.56228 | 33756 ft | 458 kts | 22° |
| 2026-05-06 05:00 | 39.22768 | -112.54631 | 33168 ft | 456 kts | 22° |
| 2026-05-06 05:00 | 39.25701 | -112.53030 | 32552 ft | 459 kts | 22° |
| 2026-05-06 05:01 | 39.28639 | -112.51426 | 31934 ft | 460 kts | 22° |
| 2026-05-06 05:01 | 39.31659 | -112.50047 | 31300 ft | 461 kts | 15° |
| 2026-05-06 05:01 | 39.34732 | -112.49035 | 30717 ft | 462 kts | 13° |
| 2026-05-06 05:01 | 39.37869 | -112.48048 | 30098 ft | 464 kts | 14° |
| 2026-05-06 05:02 | 39.40977 | -112.47020 | 29483 ft | 457 kts | 14° |
| 2026-05-06 05:02 | 39.44017 | -112.45982 | 28883 ft | 447 kts | 14° |
| 2026-05-06 05:02 | 39.47004 | -112.44987 | 28300 ft | 438 kts | 14° |
| 2026-05-06 05:02 | 39.49960 | -112.44021 | 27715 ft | 438 kts | 14° |
| 2026-05-06 05:03 | 39.52913 | -112.43041 | 27131 ft | 439 kts | 14° |
| 2026-05-06 05:03 | 39.55877 | -112.42046 | 26547 ft | 440 kts | 14° |
| 2026-05-06 05:03 | 39.58850 | -112.41056 | 25956 ft | 438 kts | 14° |
| 2026-05-06 05:03 | 39.61771 | -112.40085 | 25358 ft | 428 kts | 14° |
| 2026-05-06 05:04 | 39.64623 | -112.39132 | 24814 ft | 418 kts | 14° |
| 2026-05-06 05:04 | 39.67417 | -112.38199 | 24263 ft | 412 kts | 14° |
| 2026-05-06 05:04 | 39.70196 | -112.37271 | 23725 ft | 413 kts | 14° |
| 2026-05-06 05:04 | 39.72978 | -112.36339 | 23165 ft | 413 kts | 14° |
| 2026-05-06 05:05 | 39.75772 | -112.35405 | 22619 ft | 415 kts | 14° |
| 2026-05-06 05:05 | 39.78570 | -112.34467 | 22064 ft | 416 kts | 14° |
| 2026-05-06 05:05 | 39.81345 | -112.33535 | 21518 ft | 418 kts | 14° |
| 2026-05-06 05:05 | 39.84166 | -112.32590 | 20956 ft | 420 kts | 14° |
| 2026-05-06 05:06 | 39.87038 | -112.31626 | 20381 ft | 422 kts | 14° |
| 2026-05-06 05:06 | 39.89841 | -112.30682 | 19835 ft | 421 kts | 14° |
| 2026-05-06 05:06 | 39.92677 | -112.29727 | 19274 ft | 422 kts | 14° |
| 2026-05-06 05:06 | 39.95528 | -112.28767 | 18712 ft | 423 kts | 14° |
| 2026-05-06 05:07 | 39.98378 | -112.27807 | 18148 ft | 423 kts | 14° |
| 2026-05-06 05:07 | 40.01230 | -112.26844 | 17583 ft | 423 kts | 14° |
| 2026-05-06 05:07 | 40.04085 | -112.25880 | 17041 ft | 424 kts | 14° |
| 2026-05-06 05:07 | 40.06927 | -112.24920 | 16950 ft | 413 kts | 14° |
| 2026-05-06 05:08 | 40.09661 | -112.23994 | 16439 ft | 397 kts | 14° |
| 2026-05-06 05:08 | 40.12254 | -112.23115 | 16367 ft | 371 kts | 14° |
| 2026-05-06 05:08 | 40.14644 | -112.22305 | 16371 ft | 347 kts | 14° |
| 2026-05-06 05:08 | 40.16907 | -112.21537 | 16342 ft | 325 kts | 14° |
| 2026-05-06 05:09 | 40.19046 | -112.20812 | 15893 ft | 317 kts | 14° |
| 2026-05-06 05:09 | 40.21234 | -112.20069 | 15085 ft | 326 kts | 14° |
| 2026-05-06 05:09 | 40.23379 | -112.19340 | 14991 ft | 315 kts | 14° |
| 2026-05-06 05:09 | 40.25588 | -112.18589 | 14994 ft | 340 kts | 14° |
| 2026-05-06 05:10 | 40.27888 | -112.17807 | 15058 ft | 342 kts | 14° |
| 2026-05-06 05:10 | 40.30241 | -112.17004 | 15088 ft | 354 kts | 14° |
| 2026-05-06 05:10 | 40.32620 | -112.16193 | 15078 ft | 353 kts | 14° |
| 2026-05-06 05:10 | 40.35009 | -112.15381 | 15078 ft | 355 kts | 14° |
| 2026-05-06 05:11 | 40.37406 | -112.14564 | 15078 ft | 356 kts | 14° |
| 2026-05-06 05:11 | 40.39802 | -112.13746 | 15068 ft | 354 kts | 14° |
| 2026-05-06 05:11 | 40.42196 | -112.12927 | 14805 ft | 355 kts | 14° |
| 2026-05-06 05:11 | 40.44564 | -112.12118 | 14494 ft | 351 kts | 14° |
| 2026-05-06 05:12 | 40.46934 | -112.11308 | 14187 ft | 350 kts | 14° |
| 2026-05-06 05:12 | 40.49251 | -112.10516 | 13885 ft | 347 kts | 14° |
| 2026-05-06 05:12 | 40.51585 | -112.09725 | 13580 ft | 345 kts | 14° |
| 2026-05-06 05:12 | 40.53901 | -112.08941 | 13270 ft | 343 kts | 14° |
| 2026-05-06 05:13 | 40.56228 | -112.08286 | 12945 ft | 341 kts | 5° |
| 2026-05-06 05:13 | 40.58590 | -112.08105 | 12654 ft | 339 kts | 2° |
| 2026-05-06 05:13 | 40.60947 | -112.07991 | 12362 ft | 338 kts | 2° |
| 2026-05-06 05:13 | 40.63299 | -112.07861 | 12069 ft | 336 kts | 359° |
| 2026-05-06 05:14 | 40.65612 | -112.08093 | 12078 ft | 334 kts | 354° |
| 2026-05-06 05:14 | 40.67945 | -112.08362 | 12076 ft | 334 kts | 355° |
| 2026-05-06 05:14 | 40.69482 | -112.08529 | 12078 ft | 334 kts | 355° |
| 2026-05-06 05:14 | 40.71805 | -112.08793 | 12074 ft | 334 kts | 354° |
| 2026-05-06 05:15 | 40.74125 | -112.09069 | 12075 ft | 336 kts | 354° |
| 2026-05-06 05:15 | 40.76449 | -112.09342 | 12074 ft | 335 kts | 354° |
| 2026-05-06 05:15 | 40.79522 | -112.09707 | 12073 ft | 335 kts | 354° |
| 2026-05-06 05:15 | 40.81799 | -112.09977 | 11589 ft | 327 kts | 354° |
| 2026-05-06 05:16 | 40.83336 | -112.10159 | 11138 ft | 327 kts | 354° |
| 2026-05-06 05:16 | 40.85510 | -112.10415 | 11061 ft | 307 kts | 354° |
| 2026-05-06 05:16 | 40.87563 | -112.10567 | 11068 ft | 285 kts | 359° |
| 2026-05-06 05:16 | 40.89472 | -112.10607 | 11062 ft | 265 kts | 358° |
| 2026-05-06 05:17 | 40.91240 | -112.10519 | 11045 ft | 245 kts | 10° |
| 2026-05-06 05:17 | 40.92834 | -112.10025 | 10981 ft | 228 kts | 15° |
| 2026-05-06 05:17 | 40.94304 | -112.09264 | 10487 ft | 229 kts | 34° |
| 2026-05-06 05:17 | 40.95530 | -112.07941 | 10171 ft | 223 kts | 44° |
| 2026-05-06 05:18 | 40.96376 | -112.06285 | 9885 ft | 217 kts | 70° |
| 2026-05-06 05:18 | 40.96620 | -112.04323 | 9487 ft | 217 kts | 94° |
| 2026-05-06 05:18 | 40.96103 | -112.02516 | 9261 ft | 203 kts | 123° |
| 2026-05-06 05:18 | 40.95221 | -112.01126 | 8795 ft | 196 kts | 145° |
| 2026-05-06 05:19 | 40.93975 | -112.00551 | 8249 ft | 191 kts | 177° |
| 2026-05-06 05:19 | 40.92624 | -112.00682 | 7562 ft | 197 kts | 189° |
| 2026-05-06 05:19 | 40.91320 | -112.00966 | 7235 ft | 182 kts | 188° |
| 2026-05-06 05:19 | 40.90141 | -112.01009 | 7077 ft | 156 kts | 177° |
| 2026-05-06 05:20 | 40.89060 | -112.00899 | 6538 ft | 157 kts | 176° |
| 2026-05-06 05:20 | 40.87972 | -112.00809 | 6029 ft | 156 kts | 178° |
| 2026-05-06 05:20 | 40.86908 | -112.00714 | 5602 ft | 149 kts | 172° |
| 2026-05-06 05:20 | 40.85910 | -112.00494 | 5277 ft | 143 kts | 176° |
| 2026-05-06 05:21 | 40.84934 | -112.00416 | 4992 ft | 137 kts | 176° |
| 2026-05-06 05:21 | 40.83988 | -112.00287 | 4786 ft | 136 kts | 175° |
| 2026-05-06 05:21 | 40.83063 | -112.00204 | 4694 ft | 136 kts | 176° |
| 2026-05-06 05:21 | 40.82113 | -112.00070 | 4496 ft | 137 kts | 178° |
| 2026-05-06 05:22 | 40.81181 | -111.99973 | 4354 ft | 136 kts | 175° |
| 2026-05-06 05:22 | 40.80235 | -111.99866 | 4235 ft | 131 kts | 176° |
| 2026-05-06 05:22 | 40.79562 | -111.99790 | 4227 ft | 53 kts | 180° |
| 2026-05-06 05:22 | 40.79323 | -111.99762 | 4228 ft | 20 kts | 169° |
| 2026-05-06 05:23 | 40.79214 | -111.99717 | 4229 ft | 15 kts | 156° |
| 2026-05-06 05:23 | 40.79133 | -111.99647 | 4231 ft | 13 kts | 134° |
| 2026-05-06 05:23 | 40.79073 | -111.99541 | 4233 ft | 5 kts | 135° |
| 2026-05-06 05:24 | 40.79072 | -111.99525 | 4231 ft | 3 kts | 68° |
| 2026-05-06 05:24 | 40.79094 | -111.99465 | 4233 ft | 7 kts | 86° |
| 2026-05-06 05:24 | 40.79053 | -111.99417 | 4233 ft | 10 kts | 163° |
| 2026-05-06 05:24 | 40.78977 | -111.99405 | 4233 ft | 13 kts | 174° |
| 2026-05-06 05:25 | 40.78874 | -111.99394 | 4235 ft | 17 kts | 175° |
| 2026-05-06 05:25 | 40.78749 | -111.99377 | 4235 ft | 18 kts | 154° |
| 2026-05-06 05:25 | 40.78726 | -111.99277 | 4233 ft | 8 kts | 92° |
| 2026-05-06 05:25 | 40.78726 | -111.99200 | 4232 ft | 8 kts | 85° |
| 2026-05-06 05:26 | 40.78733 | -111.99102 | 4232 ft | 12 kts | 85° |
| 2026-05-06 05:26 | 40.78766 | -111.99049 | 4230 ft | 3 kts | 357° |
| 2026-05-06 05:26 | 40.78805 | -111.99054 | 4231 ft | 6 kts | 355° |
| 2026-05-06 05:26 | 40.78810 | -111.99054 | 4231 ft | 0 kts | 356° |